Time;durP1;ratioP1;P1;durP2;ratioP2;P2;SDS_P1;SDS_P2;PMS_P1;PMS_P2;Temp;Humidity;BMP_temperature;BMP_pressure;BME280_temperature;BME280_humidity;BME280_pressure;Samples;Min_cycle;Max_cycle;Signal;HPM_P1;HPM_P2
2021/07/17 00:01:51;;;;;;;32.13;26.50;;;19.60;99.90;;;;;;10349094;28;20230;-82
2021/07/17 00:07:13;;;;;;;35.90;28.87;;;19.70;99.90;;;;;;10366180;28;20205;-81
2021/07/17 00:12:36;;;;;;;30.50;25.97;;;19.70;99.90;;;;;;10398454;23;20600;-83
2021/07/17 00:17:59;;;;;;;35.07;26.73;;;19.70;99.90;;;;;;10379664;28;20229;-82
2021/07/17 00:23:21;;;;;;;39.63;28.23;;;19.70;99.90;;;;;;10363599;28;20222;-82
2021/07/17 00:28:44;;;;;;;31.83;26.50;;;19.70;99.90;;;;;;10376241;28;20213;-83
2021/07/17 00:34:06;;;;;;;31.40;27.90;;;19.70;99.90;;;;;;10375881;28;20214;-82
2021/07/17 00:39:28;;;;;;;34.00;27.00;;;19.70;99.90;;;;;;10370630;28;20198;-82
2021/07/17 00:44:51;;;;;;;34.73;27.40;;;19.70;99.90;;;;;;10371296;28;20194;-82
2021/07/17 00:50:16;;;;;;;29.80;26.60;;;19.70;99.90;;;;;;10399894;28;20225;-82
2021/07/17 00:55:41;;;;;;;34.33;27.97;;;19.70;99.90;;;;;;10397241;28;20197;-83
2021/07/17 01:01:05;;;;;;;30.83;27.00;;;19.60;99.90;;;;;;10395781;28;20217;-82
2021/07/17 01:06:27;;;;;;;34.47;26.00;;;19.60;99.90;;;;;;10418699;28;20681;-82
2021/07/17 01:11:51;;;;;;;31.40;26.47;;;19.70;99.90;;;;;;10404345;28;20218;-82
2021/07/17 01:17:14;;;;;;;31.87;27.20;;;19.70;99.90;;;;;;10414587;28;20207;-82
2021/07/17 01:22:38;;;;;;;29.93;26.73;;;19.70;99.90;;;;;;10376985;28;20234;-82
2021/07/17 01:28:00;;;;;;;32.30;26.37;;;19.70;99.90;;;;;;10378319;28;20222;-82
2021/07/17 01:33:22;;;;;;;31.47;25.97;;;19.70;99.90;;;;;;10376836;28;20225;-82
2021/07/17 01:38:45;;;;;;;29.67;26.53;;;19.70;99.90;;;;;;10361813;28;20202;-82
2021/07/17 01:44:08;;;;;;;31.10;24.30;;;19.70;99.90;;;;;;10376934;28;20218;-82
2021/07/17 01:49:30;;;;;;;27.77;24.87;;;19.70;99.90;;;;;;10375449;28;20221;-82
2021/07/17 01:54:53;;;;;;;30.77;26.17;;;19.70;99.90;;;;;;10373990;28;20190;-82
2021/07/17 02:00:17;;;;;;;28.53;25.60;;;19.70;99.90;;;;;;10372449;28;20207;-83
2021/07/17 02:05:39;;;;;;;29.23;25.97;;;19.70;99.90;;;;;;10374332;28;20205;-82
2021/07/17 02:11:05;;;;;;;27.60;24.30;;;19.70;99.90;;;;;;10370275;28;20221;-82
2021/07/17 02:16:27;;;;;;;27.43;24.50;;;19.70;99.90;;;;;;10374575;28;20213;-83
2021/07/17 02:21:50;;;;;;;30.87;24.97;;;19.70;99.90;;;;;;10376938;28;20507;-82
2021/07/17 02:27:13;;;;;;;30.23;25.27;;;19.70;99.90;;;;;;10378870;28;20194;-83
2021/07/17 02:32:35;;;;;;;28.13;25.00;;;19.70;99.90;;;;;;10379332;28;20218;-83
2021/07/17 02:37:57;;;;;;;31.10;25.73;;;19.60;99.90;;;;;;10378269;28;20209;-82
2021/07/17 02:43:21;;;;;;;29.03;25.93;;;19.60;99.90;;;;;;10379744;28;20222;-82
2021/07/17 02:48:43;;;;;;;29.00;22.33;;;19.60;99.90;;;;;;10396591;28;20228;-83
2021/07/17 02:54:05;;;;;;;32.77;24.23;;;19.60;99.90;;;;;;10407583;28;20228;-82
2021/07/17 02:59:29;;;;;;;26.30;21.87;;;19.50;99.90;;;;;;10407104;28;20209;-83
2021/07/17 03:04:51;;;;;;;27.97;23.23;;;19.50;99.90;;;;;;10422204;28;20204;-82
2021/07/17 03:10:13;;;;;;;26.93;23.43;;;19.50;99.90;;;;;;10406717;28;20233;-83
2021/07/17 03:15:36;;;;;;;25.37;22.20;;;19.50;99.90;;;;;;10420286;28;20593;-82
2021/07/17 03:20:58;;;;;;;24.93;22.53;;;19.50;99.90;;;;;;10373572;28;20581;-82
2021/07/17 03:26:20;;;;;;;25.73;22.80;;;19.40;99.90;;;;;;10381974;28;20198;-82
2021/07/17 03:31:47;;;;;;;29.10;24.97;;;19.40;99.90;;;;;;10382045;28;20313;-83
2021/07/17 03:37:09;;;;;;;24.60;21.17;;;19.50;99.90;;;;;;10368782;28;20187;-83
2021/07/17 03:42:31;;;;;;;27.67;23.50;;;19.50;99.90;;;;;;10385047;28;20214;-82
2021/07/17 03:47:54;;;;;;;27.93;24.40;;;19.50;99.90;;;;;;10379241;28;20631;-83
2021/07/17 03:53:16;;;;;;;27.80;24.80;;;19.40;99.90;;;;;;10373485;28;20301;-83
2021/07/17 03:58:41;;;;;;;27.37;24.57;;;19.40;99.90;;;;;;10371650;28;20257;-82
2021/07/17 04:04:07;;;;;;;32.50;25.70;;;19.40;99.90;;;;;;10371259;28;20224;-82
2021/07/17 04:09:29;;;;;;;27.13;24.33;;;19.40;99.90;;;;;;10372905;28;20280;-82
2021/07/17 04:14:51;;;;;;;27.63;24.73;;;19.40;99.90;;;;;;10372559;28;20202;-82
2021/07/17 04:20:15;;;;;;;29.50;24.07;;;19.50;99.90;;;;;;10399098;28;20222;-82
2021/07/17 04:25:37;;;;;;;31.43;24.53;;;19.40;99.90;;;;;;10400110;28;20206;-82
2021/07/17 04:30:59;;;;;;;26.67;23.93;;;19.40;99.90;;;;;;10412835;28;20724;-82
2021/07/17 04:36:23;;;;;;;28.80;24.30;;;19.40;99.90;;;;;;10402502;28;20583;-82
2021/07/17 04:41:45;;;;;;;25.80;23.10;;;19.40;99.90;;;;;;10419933;28;20218;-82
2021/07/17 04:47:07;;;;;;;28.70;25.30;;;19.40;99.90;;;;;;10404568;28;20811;-82
2021/07/17 04:52:31;;;;;;;29.67;24.63;;;19.40;99.90;;;;;;10381180;28;20225;-82
2021/07/17 04:57:53;;;;;;;26.87;23.90;;;19.50;99.90;;;;;;10380876;28;20187;-82
2021/07/17 05:03:16;;;;;;;28.27;25.17;;;19.50;99.90;;;;;;10378485;28;20224;-82
2021/07/17 05:08:40;;;;;;;30.20;25.67;;;19.50;99.90;;;;;;10364356;28;20233;-82
2021/07/17 05:14:01;;;;;;;27.30;24.60;;;19.60;99.90;;;;;;10380254;28;20596;-82
2021/07/17 05:19:23;;;;;;;30.50;25.57;;;19.60;99.90;;;;;;10403373;28;20209;-82
2021/07/17 05:24:47;;;;;;;27.53;24.60;;;19.60;99.90;;;;;;10408170;28;20284;-82
2021/07/17 05:30:10;;;;;;;27.00;24.20;;;19.60;99.90;;;;;;10424334;28;20226;-82
2021/07/17 05:35:32;;;;;;;28.13;25.20;;;19.70;99.90;;;;;;10408315;28;20281;-82
2021/07/17 05:40:55;;;;;;;25.50;23.03;;;19.70;99.90;;;;;;10409513;28;20301;-82
2021/07/17 05:46:17;;;;;;;24.80;22.20;;;19.70;99.90;;;;;;10409442;28;20198;-82
2021/07/17 05:51:39;;;;;;;23.87;21.37;;;19.80;99.90;;;;;;10346869;28;20218;-82
2021/07/17 05:57:03;;;;;;;24.87;22.50;;;19.80;99.90;;;;;;10382732;28;20209;-82
2021/07/17 06:02:25;;;;;;;23.50;21.00;;;19.80;99.90;;;;;;10384626;28;20221;-82
2021/07/17 06:07:47;;;;;;;22.60;20.50;;;19.80;99.90;;;;;;10383456;28;20194;-82
2021/07/17 06:13:10;;;;;;;23.57;21.00;;;19.90;99.90;;;;;;10404183;23;20242;-81
2021/07/17 06:18:32;;;;;;;22.90;20.60;;;19.90;99.90;;;;;;10380274;28;20206;-81
2021/07/17 06:23:54;;;;;;;24.13;21.50;;;19.90;99.90;;;;;;10369798;28;20228;-82
2021/07/17 06:29:17;;;;;;;23.53;21.17;;;20.00;99.90;;;;;;10380761;28;20222;-82
2021/07/17 06:34:39;;;;;;;24.43;21.87;;;20.00;99.90;;;;;;10374014;28;20214;-80
2021/07/17 06:40:01;;;;;;;22.37;20.10;;;20.10;99.90;;;;;;10353006;28;20195;-81
2021/07/17 06:45:25;;;;;;;23.57;21.27;;;20.00;99.90;;;;;;10376268;28;20210;-82
2021/07/17 06:50:48;;;;;;;21.67;19.30;;;20.10;99.90;;;;;;10379181;28;20230;-82
2021/07/17 06:56:10;;;;;;;22.30;20.00;;;20.10;99.90;;;;;;10374148;28;20199;-82
2021/07/17 07:01:33;;;;;;;21.83;19.30;;;20.10;99.90;;;;;;10375503;28;20582;-82
2021/07/17 07:06:55;;;;;;;19.80;17.80;;;20.20;99.90;;;;;;10389567;28;20581;-81
2021/07/17 07:12:17;;;;;;;20.57;18.57;;;20.30;99.90;;;;;;10424615;28;20667;-81
2021/07/17 07:17:41;;;;;;;20.50;18.50;;;20.50;99.90;;;;;;10373963;28;20202;-82
2021/07/17 07:23:03;;;;;;;22.30;18.63;;;20.50;99.90;;;;;;10373007;28;20225;-82
2021/07/17 07:28:25;;;;;;;21.27;18.43;;;20.50;99.90;;;;;;10373750;28;20206;-81
2021/07/17 07:33:48;;;;;;;19.00;17.10;;;20.50;99.90;;;;;;10380044;28;20222;-83
2021/07/17 07:39:10;;;;;;;20.27;18.33;;;20.60;99.90;;;;;;10411040;28;20197;-82
2021/07/17 07:44:32;;;;;;;19.53;17.70;;;20.70;99.90;;;;;;10418186;28;20222;-82
2021/07/17 07:49:57;;;;;;;20.20;18.13;;;20.70;99.90;;;;;;10404558;28;20245;-81
2021/07/17 07:55:19;;;;;;;19.13;17.20;;;20.70;99.90;;;;;;10398889;28;20210;-81
2021/07/17 08:00:41;;;;;;;22.57;20.30;;;20.70;99.90;;;;;;10388047;28;20228;-81
2021/07/17 08:06:04;;;;;;;21.97;19.80;;;20.70;99.90;;;;;;10372577;28;20197;-82
2021/07/17 08:11:26;;;;;;;22.30;19.40;;;20.60;99.90;;;;;;10352175;28;20218;-81
2021/07/17 08:16:48;;;;;;;22.60;20.20;;;20.50;99.90;;;;;;10369410;28;20198;-80
2021/07/17 08:22:12;;;;;;;22.50;20.30;;;20.50;99.90;;;;;;10371668;28;20687;-81
2021/07/17 08:27:34;;;;;;;25.20;21.10;;;20.50;99.90;;;;;;10371618;28;20573;-82
2021/07/17 08:32:56;;;;;;;22.87;20.57;;;20.40;99.90;;;;;;10362052;28;20225;-84
2021/07/17 08:38:19;;;;;;;27.20;21.10;;;20.40;99.90;;;;;;10379694;28;20202;-84
2021/07/17 08:43:42;;;;;;;26.20;22.70;;;20.40;99.90;;;;;;10369987;28;20232;-85
2021/07/17 08:49:04;;;;;;;26.40;21.80;;;20.50;99.90;;;;;;10367776;28;20213;-83
2021/07/17 08:54:28;;;;;;;24.77;20.47;;;20.60;99.90;;;;;;10374861;28;20214;-83
2021/07/17 08:59:51;;;;;;;23.27;20.80;;;20.70;99.90;;;;;;10377204;28;20191;-84
2021/07/17 09:05:15;;;;;;;22.37;19.87;;;20.90;99.90;;;;;;10376106;28;20268;-81
2021/07/17 09:10:40;;;;;;;20.90;18.90;;;21.10;99.90;;;;;;10377190;28;20231;-82
2021/07/17 09:16:04;;;;;;;22.00;19.30;;;21.30;99.90;;;;;;10375844;28;20690;-82
2021/07/17 09:21:28;;;;;;;24.07;18.63;;;21.30;99.90;;;;;;10377867;28;20592;-81
2021/07/17 09:26:53;;;;;;;20.20;18.27;;;21.30;99.90;;;;;;10379738;28;20229;-80
2021/07/17 09:32:17;;;;;;;21.40;19.10;;;21.30;99.90;;;;;;10367148;28;20257;-80
2021/07/17 09:37:38;;;;;;;20.57;18.37;;;21.30;99.90;;;;;;10382017;28;20210;-80
2021/07/17 09:43:02;;;;;;;19.73;17.77;;;21.30;99.90;;;;;;10369481;28;20218;-80
2021/07/17 09:48:27;;;;;;;19.53;17.30;;;21.20;99.90;;;;;;10387415;28;20198;-81
2021/07/17 09:53:51;;;;;;;19.60;17.60;;;21.20;99.90;;;;;;10383460;28;20242;-80
2021/07/17 09:59:16;;;;;;;21.37;17.73;;;21.10;99.90;;;;;;10387002;28;20195;-79
2021/07/17 10:04:49;;;;;;;19.90;17.90;;;21.10;99.90;;;;;;10376771;28;20681;-81
2021/07/17 10:10:11;;;;;;;21.17;17.57;;;21.20;99.90;;;;;;10381730;28;20233;-81
2021/07/17 10:15:34;;;;;;;25.17;19.83;;;21.30;99.90;;;;;;10366524;28;20205;-80
2021/07/17 10:20:58;;;;;;;19.90;17.87;;;21.50;99.90;;;;;;10391871;28;20267;-81
2021/07/17 10:26:20;;;;;;;19.33;17.40;;;21.70;99.90;;;;;;10368349;28;20290;-80
2021/07/17 10:31:44;;;;;;;21.90;17.97;;;21.90;99.90;;;;;;10379075;28;20233;-80
2021/07/17 10:37:11;;;;;;;19.90;18.00;;;22.00;99.90;;;;;;10378442;28;20689;-80
2021/07/17 10:42:33;;;;;;;20.77;18.47;;;22.30;99.90;;;;;;10385532;28;20253;-81
2021/07/17 10:47:57;;;;;;;20.43;18.10;;;22.40;99.90;;;;;;10376542;28;20521;-80
2021/07/17 10:53:41;;;;;;;19.30;17.47;;;22.50;99.90;;;;;;10383983;28;20252;-81
2021/07/17 10:59:09;;;;;;;19.97;17.90;;;22.50;99.90;;;;;;10379859;28;20187;-80
2021/07/17 11:04:35;;;;;;;17.63;16.00;;;22.60;99.90;;;;;;10386287;28;20222;-80
2021/07/17 11:09:58;;;;;;;18.93;17.03;;;22.60;99.90;;;;;;10379092;28;20218;-80
2021/07/17 11:15:41;;;;;;;19.93;18.07;;;22.60;99.90;;;;;;10384520;28;20201;-81
2021/07/17 11:21:10;;;;;;;21.80;18.50;;;22.50;99.90;;;;;;10374270;28;20273;-81
2021/07/17 11:26:32;;;;;;;24.00;19.17;;;22.40;99.90;;;;;;10377943;28;20208;-80
2021/07/17 11:31:56;;;;;;;20.00;18.00;;;22.30;99.90;;;;;;10352592;28;20233;-80
2021/07/17 11:37:26;;;;;;;21.37;19.00;;;22.20;99.90;;;;;;10387248;28;20236;-80
2021/07/17 11:42:48;;;;;;;20.27;18.43;;;22.30;99.90;;;;;;10384637;28;20280;-79
2021/07/17 11:48:12;;;;;;;21.57;18.77;;;22.30;99.90;;;;;;10357402;28;20216;-80
2021/07/17 11:53:35;;;;;;;19.87;18.07;;;22.30;99.90;;;;;;10371382;28;20305;-80
2021/07/17 11:59:12;;;;;;;18.97;17.07;;;22.40;99.90;;;;;;10373090;28;20202;-83
2021/07/17 12:04:36;;;;;;;18.47;16.63;;;22.40;99.90;;;;;;10361709;28;20214;-82
2021/07/17 12:10:01;;;;;;;19.83;17.80;;;22.30;99.90;;;;;;10409911;28;20697;-83
2021/07/17 12:15:25;;;;;;;19.80;17.40;;;22.30;99.90;;;;;;10396447;22;20241;-82
2021/07/17 12:20:49;;;;;;;20.43;18.30;;;22.30;99.90;;;;;;10363192;28;20198;-81
2021/07/17 12:26:18;;;;;;;19.40;17.40;;;22.30;99.90;;;;;;10377116;28;20205;-81
2021/07/17 12:31:58;;;;;;;19.23;17.43;;;22.40;99.90;;;;;;10376190;28;20315;-81
2021/07/17 12:37:26;;;;;;;18.83;16.87;;;22.60;99.90;;;;;;10365309;28;20202;-81
2021/07/17 12:42:50;;;;;;;18.00;16.40;;;22.90;99.90;;;;;;10386697;28;20229;-81
2021/07/17 12:48:12;;;;;;;17.30;15.53;;;23.10;99.90;;;;;;10383491;28;20198;-81
2021/07/17 12:53:35;;;;;;;18.77;16.97;;;23.00;99.90;;;;;;10380717;28;20573;-81
2021/07/17 12:59:00;;;;;;;19.53;17.67;;;22.90;99.90;;;;;;10397041;28;20195;-81
2021/07/17 13:10:54;;;;;;;19.27;17.50;;;23.30;99.90;;;;;;10397461;28;20702;-81
2021/07/17 13:16:46;;;;;;;18.90;17.10;;;23.40;99.90;;;;;;10402712;28;20209;-81
2021/07/17 13:22:10;;;;;;;20.27;18.47;;;23.20;99.90;;;;;;10402800;28;20233;-81
2021/07/17 13:27:33;;;;;;;20.03;18.23;;;23.00;99.90;;;;;;10437832;28;20205;-81
2021/07/17 13:33:04;;;;;;;19.70;17.77;;;22.90;99.90;;;;;;10428929;28;20225;-81
2021/07/17 13:38:35;;;;;;;18.50;16.77;;;23.00;99.90;;;;;;10429061;28;20202;-81
2021/07/17 13:44:11;;;;;;;18.20;16.40;;;23.20;99.90;;;;;;10425757;28;20210;-82
2021/07/17 13:49:35;;;;;;;17.90;16.30;;;23.50;99.90;;;;;;10424119;28;20190;-82
2021/07/17 13:54:57;;;;;;;17.57;15.80;;;23.70;99.90;;;;;;10410432;28;20222;-81
2021/07/17 14:00:20;;;;;;;16.40;14.93;;;23.90;99.90;;;;;;10382244;28;20194;-82
2021/07/17 14:05:44;;;;;;;16.53;14.77;;;23.90;99.90;;;;;;10379729;28;20206;-81
2021/07/17 14:11:08;;;;;;;16.10;14.60;;;23.80;99.90;;;;;;10374382;28;20237;-81
2021/07/17 14:16:34;;;;;;;16.07;14.60;;;23.60;99.90;;;;;;10379348;28;20289;-81
2021/07/17 14:21:58;;;;;;;15.57;14.07;;;23.50;99.90;;;;;;10362454;28;20238;-81
2021/07/17 14:27:19;;;;;;;15.37;13.80;;;23.50;99.90;;;;;;10374679;28;20214;-81
2021/07/17 14:32:41;;;;;;;15.40;14.00;;;23.40;99.90;;;;;;10400799;28;20224;-81
2021/07/17 14:38:05;;;;;;;16.33;14.87;;;23.20;99.90;;;;;;10415779;28;20575;-81
2021/07/17 14:43:27;;;;;;;15.30;13.90;;;23.10;99.90;;;;;;10417320;28;20603;-81
2021/07/17 14:48:49;;;;;;;17.33;15.80;;;23.10;99.90;;;;;;10404152;28;20213;-81
2021/07/17 14:54:13;;;;;;;15.97;14.67;;;23.10;99.90;;;;;;10418261;28;20252;-81
2021/07/17 14:59:35;;;;;;;16.73;15.23;;;23.20;99.90;;;;;;10415238;28;20612;-81
2021/07/17 15:04:57;;;;;;;15.87;14.43;;;23.40;99.90;;;;;;10416871;28;20624;-81
2021/07/17 15:10:21;;;;;;;17.00;15.47;;;23.40;99.90;;;;;;10418084;28;20659;-82
2021/07/17 15:15:43;;;;;;;16.63;14.90;;;23.30;99.90;;;;;;10425085;28;20209;-81
2021/07/17 15:21:05;;;;;;;15.97;14.60;;;23.30;99.90;;;;;;10420209;28;20718;-81
2021/07/17 15:26:28;;;;;;;16.27;14.63;;;23.30;99.90;;;;;;10415382;28;20215;-81
2021/07/17 15:31:52;;;;;;;15.10;13.70;;;23.50;99.90;;;;;;10414612;28;20240;-82
2021/07/17 15:37:14;;;;;;;15.40;14.00;;;23.50;99.90;;;;;;10400181;28;20194;-82
2021/07/17 15:42:37;;;;;;;17.30;13.60;;;23.60;99.90;;;;;;10419073;28;20213;-81
2021/07/17 15:48:00;;;;;;;15.63;14.10;;;23.60;99.90;;;;;;10419861;28;20196;-81
2021/07/17 15:53:22;;;;;;;14.73;13.33;;;23.50;99.90;;;;;;10403732;28;20317;-81
2021/07/17 15:58:45;;;;;;;15.83;13.97;;;23.60;99.90;;;;;;10376980;28;20682;-82
2021/07/17 16:04:07;;;;;;;14.67;13.43;;;23.70;99.90;;;;;;10363333;28;20233;-81
2021/07/17 16:09:29;;;;;;;14.97;13.47;;;23.80;99.90;;;;;;10375557;28;20199;-81
2021/07/17 16:14:53;;;;;;;14.57;13.27;;;23.80;99.90;;;;;;10362116;28;20232;-81
2021/07/17 16:20:15;;;;;;;13.30;12.10;;;23.90;99.90;;;;;;10375202;28;20205;-82
2021/07/17 16:25:36;;;;;;;14.90;13.57;;;23.90;99.90;;;;;;10400644;28;20297;-81
2021/07/17 16:31:00;;;;;;;16.17;14.77;;;24.10;99.90;;;;;;10415772;28;20253;-81
2021/07/17 16:36:22;;;;;;;14.60;13.30;;;24.20;99.90;;;;;;10417574;28;20206;-82
2021/07/17 16:41:44;;;;;;;14.57;13.43;;;24.20;99.90;;;;;;10417064;28;20638;-82
2021/07/17 16:47:07;;;;;;;14.87;13.33;;;24.10;99.90;;;;;;10414852;28;20831;-81
2021/07/17 16:52:29;;;;;;;14.33;13.23;;;24.10;99.90;;;;;;10416284;28;20236;-81
2021/07/17 16:57:51;;;;;;;15.37;13.87;;;24.00;99.90;;;;;;10402060;28;20575;-81
2021/07/17 17:03:15;;;;;;;15.53;14.03;;;24.00;99.90;;;;;;10412902;28;20225;-81
2021/07/17 17:08:38;;;;;;;16.80;15.20;;;24.00;99.90;;;;;;10413114;28;20734;-81
2021/07/17 17:14:00;;;;;;;16.00;14.40;;;24.00;99.90;;;;;;10399843;28;20651;-81
2021/07/17 17:19:23;;;;;;;17.23;15.63;;;23.90;99.90;;;;;;10400820;28;20216;-81
2021/07/17 17:24:45;;;;;;;15.80;14.27;;;23.80;99.90;;;;;;10398883;28;20222;-82
2021/07/17 17:30:08;;;;;;;16.77;15.10;;;23.80;99.90;;;;;;10412757;28;20210;-81
2021/07/17 17:35:32;;;;;;;17.40;15.60;;;23.70;99.90;;;;;;10413100;28;20214;-81
2021/07/17 17:40:54;;;;;;;16.67;15.17;;;23.60;99.90;;;;;;10412627;28;20194;-81
2021/07/17 17:46:16;;;;;;;17.93;16.03;;;23.50;99.90;;;;;;10419675;28;20507;-82
2021/07/17 17:51:39;;;;;;;12.33;11.30;;;23.50;99.90;;;;;;10420050;28;20240;-82
2021/07/17 17:57:01;;;;;;;18.37;16.33;;;23.40;99.90;;;;;;10404885;28;20211;-81
2021/07/17 18:02:23;;;;;;;18.53;16.70;;;23.40;99.90;;;;;;10405429;28;20214;-81
2021/07/17 18:07:47;;;;;;;18.97;17.20;;;23.40;99.90;;;;;;10405044;28;20205;-81
2021/07/17 18:13:09;;;;;;;20.33;17.83;;;23.30;99.90;;;;;;10427267;23;20257;-83
2021/07/17 18:18:31;;;;;;;20.30;18.20;;;23.20;99.90;;;;;;10375539;28;20203;-82
2021/07/17 18:23:54;;;;;;;21.80;19.80;;;23.10;99.90;;;;;;10379085;28;20219;-83
2021/07/17 18:29:17;;;;;;;21.97;19.87;;;23.00;99.90;;;;;;10377597;28;20208;-82
2021/07/17 18:34:38;;;;;;;21.43;19.33;;;23.00;99.90;;;;;;10377489;28;20238;-83
2021/07/17 18:40:02;;;;;;;21.23;19.30;;;23.00;99.90;;;;;;10371756;28;20194;-82
2021/07/17 18:45:26;;;;;;;25.90;18.77;;;23.00;99.90;;;;;;10375643;28;20230;-82
2021/07/17 18:50:48;;;;;;;20.03;18.23;;;22.90;99.90;;;;;;10366794;28;20221;-82
2021/07/17 18:56:11;;;;;;;21.50;19.40;;;22.90;99.90;;;;;;10381862;28;20285;-83
2021/07/17 19:01:34;;;;;;;21.80;19.50;;;22.80;99.90;;;;;;10374436;28;20224;-82
2021/07/17 19:06:56;;;;;;;22.43;18.20;;;22.80;99.90;;;;;;10380059;28;20264;-82
2021/07/17 19:12:21;;;;;;;21.50;19.20;;;22.80;99.90;;;;;;10378362;28;20624;-85
2021/07/17 19:17:44;;;;;;;22.23;19.70;;;22.80;99.90;;;;;;10363964;28;20658;-83
2021/07/17 19:23:06;;;;;;;22.37;20.00;;;22.70;99.90;;;;;;10372568;28;20313;-84
2021/07/17 19:28:30;;;;;;;21.33;19.13;;;22.70;99.90;;;;;;10378008;28;20210;-83
2021/07/17 19:33:52;;;;;;;20.50;18.30;;;22.60;99.90;;;;;;10369603;28;20230;-83
2021/07/17 19:39:14;;;;;;;22.87;20.50;;;22.60;99.90;;;;;;10371913;28;20206;-85
2021/07/17 19:44:37;;;;;;;20.03;18.23;;;22.60;99.90;;;;;;10373932;28;20603;-84
2021/07/17 19:50:01;;;;;;;20.93;18.87;;;22.50;99.90;;;;;;10373387;28;20213;-84
2021/07/17 19:55:23;;;;;;;19.87;18.13;;;22.50;99.90;;;;;;10368615;28;20256;-84
2021/07/17 20:00:46;;;;;;;21.97;19.80;;;22.50;99.90;;;;;;10396930;28;20198;-83
2021/07/17 20:06:08;;;;;;;21.03;18.80;;;22.40;99.90;;;;;;10397140;28;20197;-84
2021/07/17 20:11:30;;;;;;;22.50;20.30;;;22.30;99.90;;;;;;10411404;28;20305;-83
2021/07/17 20:16:54;;;;;;;22.37;20.17;;;22.20;99.90;;;;;;10397622;28;20615;-83
2021/07/17 20:22:16;;;;;;;22.13;19.77;;;22.20;99.90;;;;;;10398416;28;20585;-83
2021/07/17 20:27:39;;;;;;;22.90;20.77;;;22.10;99.90;;;;;;10364773;28;20202;-84
2021/07/17 20:33:02;;;;;;;25.07;22.10;;;22.10;99.90;;;;;;10371652;28;20226;-84
2021/07/17 20:38:24;;;;;;;29.07;21.20;;;22.10;99.90;;;;;;10357527;28;20202;-84
2021/07/17 20:43:46;;;;;;;23.50;21.07;;;22.10;99.90;;;;;;10359384;28;20220;-83
2021/07/17 20:49:10;;;;;;;24.33;21.87;;;22.10;99.90;;;;;;10378601;28;20208;-83
2021/07/17 20:54:32;;;;;;;25.23;22.47;;;22.10;99.90;;;;;;10376188;28;20236;-84
2021/07/17 20:59:54;;;;;;;26.83;21.50;;;22.10;99.90;;;;;;10411206;28;20208;-83
2021/07/17 21:05:18;;;;;;;23.63;21.30;;;22.10;99.90;;;;;;10410627;28;20682;-84
2021/07/17 21:10:40;;;;;;;24.97;21.60;;;22.00;99.90;;;;;;10398072;28;20198;-84
2021/07/17 21:16:03;;;;;;;24.03;21.70;;;22.00;99.90;;;;;;10413992;28;20230;-84
2021/07/17 21:21:26;;;;;;;24.10;21.23;;;21.90;99.90;;;;;;10419673;28;20225;-84
2021/07/17 21:26:48;;;;;;;24.33;21.80;;;21.90;99.90;;;;;;10406132;28;20212;-84
2021/07/17 21:32:10;;;;;;;22.53;20.43;;;21.80;99.90;;;;;;10360889;28;20237;-83
2021/07/17 21:37:34;;;;;;;21.93;19.73;;;21.70;99.90;;;;;;10356496;28;20195;-81
2021/07/17 21:42:56;;;;;;;25.23;21.90;;;21.70;99.90;;;;;;10374051;28;20611;-82
2021/07/17 21:48:19;;;;;;;21.07;18.93;;;21.60;99.90;;;;;;10373496;28;20562;-82
2021/07/17 21:53:42;;;;;;;20.83;18.73;;;21.60;99.90;;;;;;10374872;28;20206;-80
2021/07/17 21:59:05;;;;;;;23.40;19.13;;;21.50;99.90;;;;;;10375735;28;20207;-80
2021/07/17 22:04:26;;;;;;;22.80;19.40;;;21.50;99.90;;;;;;10373965;28;20705;-81
2021/07/17 22:09:50;;;;;;;19.90;17.73;;;21.40;99.90;;;;;;10375675;28;20593;-81
2021/07/17 22:15:12;;;;;;;20.27;18.27;;;21.30;99.90;;;;;;10371188;28;20265;-82
2021/07/17 22:20:34;;;;;;;22.37;20.00;;;21.20;99.90;;;;;;10375332;28;20201;-81
2021/07/17 22:25:57;;;;;;;21.17;18.97;;;21.10;99.90;;;;;;10386746;28;20225;-82
2021/07/17 22:31:19;;;;;;;19.90;17.57;;;21.10;99.90;;;;;;10401423;28;20208;-82
2021/07/17 22:36:42;;;;;;;19.30;17.40;;;21.00;99.90;;;;;;10408233;28;20208;-81
2021/07/17 22:42:05;;;;;;;23.17;18.30;;;20.90;99.90;;;;;;10418727;28;20720;-80
2021/07/17 22:47:27;;;;;;;19.57;17.43;;;20.90;99.90;;;;;;10414999;28;20198;-81
2021/07/17 22:52:51;;;;;;;20.13;18.23;;;20.90;99.90;;;;;;10416100;28;20792;-81
2021/07/17 22:58:15;;;;;;;22.30;19.00;;;20.80;99.90;;;;;;10377864;28;20601;-80
2021/07/17 23:03:37;;;;;;;20.70;18.87;;;20.70;99.90;;;;;;10373576;28;20233;-80
2021/07/17 23:08:59;;;;;;;23.10;19.30;;;20.70;99.90;;;;;;10368851;28;20538;-81
2021/07/17 23:14:23;;;;;;;21.13;18.80;;;20.60;99.90;;;;;;10371135;28;20226;-82
2021/07/17 23:19:45;;;;;;;21.67;19.57;;;20.50;99.90;;;;;;10377497;28;20209;-81
2021/07/17 23:25:10;;;;;;;20.83;18.90;;;20.50;99.90;;;;;;10368506;28;20706;-81
2021/07/17 23:30:34;;;;;;;21.27;19.27;;;20.40;99.90;;;;;;10372880;28;20286;-82
2021/07/17 23:35:56;;;;;;;25.13;20.07;;;20.40;99.90;;;;;;10364795;28;20636;-80
2021/07/17 23:41:17;;;;;;;23.30;20.90;;;20.30;99.90;;;;;;10372976;28;20202;-80
2021/07/17 23:46:41;;;;;;;26.33;22.63;;;20.20;99.90;;;;;;10358240;28;20708;-79
2021/07/17 23:52:03;;;;;;;24.60;22.03;;;20.20;99.90;;;;;;10368760;28;20222;-81
2021/07/17 23:57:25;;;;;;;23.70;21.23;;;20.20;99.90;;;;;;10371070;28;20197;-80
